Time;durP1;ratioP1;P1;durP2;ratioP2;P2;SDS_P1;SDS_P2;PMS_P1;PMS_P2;Temp;Humidity;BMP_temperature;BMP_pressure;BME280_temperature;BME280_humidity;BME280_pressure;Samples;Min_cycle;Max_cycle;Signal;HPM_P1;HPM_P2
2023/08/04 00:00:18;;;;;;;;;;;;;;;-145.06;100.00;60892.56;4722374;29;19919;-92
2023/08/04 00:03:02;;;;;;;;;;;;;;;-145.06;100.00;60892.56;4736049;29;19919;-94
2023/08/04 00:05:49;;;;;;;;;;;;;;;-145.06;100.00;60892.56;4721933;29;20359;-93
2023/08/04 00:08:41;;;;;;;;;;;;;;;-145.06;100.00;60892.56;4722578;29;19916;-93
2023/08/04 00:11:20;;;;;;;;;;;;;;;-145.06;100.00;60892.56;4722442;29;20070;-94
2023/08/04 00:13:59;;;;;;;;;;;;;;;-145.06;100.00;60892.56;4721988;29;20430;-93
2023/08/04 00:16:43;;;;;;;;;;;;;;;-145.06;100.00;60892.56;4722482;29;20259;-93
2023/08/04 00:19:22;;;;;;;;;;;;;;;-145.06;100.00;60892.56;4719528;29;19994;-94
2023/08/04 00:22:03;;;;;;;;;;;;;;;-145.06;100.00;60892.56;4704310;29;19955;-94
2023/08/04 00:24:43;;;;;;;;;;;;;;;-145.06;100.00;60892.56;4704066;29;19955;-92
2023/08/04 00:27:25;;;;;;;;;;;;;;;-145.06;100.00;60892.56;4718081;29;19915;-92
2023/08/04 00:30:09;;;;;;;;;;;;;;;-145.06;100.00;60892.56;4721681;29;19919;-91
2023/08/04 00:32:53;;;;;;;;;;;;;;;-145.06;100.00;60892.56;4721655;29;19920;-92
2023/08/04 00:35:37;;;;;;;;;;;;;;;-145.06;100.00;60892.56;4722131;29;19923;-93
2023/08/04 00:38:19;;;;;;;;;;;;;;;-145.06;100.00;60892.56;4733742;29;19915;-93
2023/08/04 00:41:05;;;;;;;;;;;;;;;-145.06;100.00;60892.56;4733157;29;19919;-93
2023/08/04 00:43:47;;;;;;;;;;;;;;;-145.06;100.00;60892.56;4718262;29;19919;-93
2023/08/04 00:46:47;;;;;;;;;;;;;;;-145.06;100.00;60892.56;4721334;29;19915;-92
2023/08/04 00:49:29;;;;;;;;;;;;;;;-145.06;100.00;60892.56;4710878;29;19920;-94
2023/08/04 00:52:14;;;;;;;;;;;;;;;-145.06;100.00;60892.56;4706855;29;19919;-92
2023/08/04 00:55:13;;;;;;;;;;;;;;;-145.06;100.00;60892.56;4721584;29;20259;-93
2023/08/04 00:58:03;;;;;;;;;;;;;;;-145.06;100.00;60892.56;4721808;29;20372;-92
2023/08/04 01:00:45;;;;;;;;;;;;;;;-145.06;100.00;60892.56;4728228;29;20358;-92
2023/08/04 01:06:45;;;;;;;;;;;;;;;-145.06;100.00;60892.56;4759512;29;19915;-93
2023/08/04 01:10:01;;;;;;;;;;;;;;;;;;;;;
2023/08/04 01:13:06;;;;;;;;;;;;;;;-145.06;100.00;60892.56;4736899;29;19916;-92
2023/08/04 01:15:46;;;;;;;;;;;;;;;-145.06;100.00;60892.56;4734646;29;19923;-92
2023/08/04 01:18:27;;;;;;;;;;;;;;;-145.06;100.00;60892.56;4721791;29;19915;-92
2023/08/04 01:21:32;;;;;;;;;;;;;;;-145.06;100.00;60892.56;4721424;29;20343;-93
2023/08/04 01:24:11;;;;;;;;;;;;;;;-145.06;100.00;60892.56;4734200;29;19915;-92
2023/08/04 01:26:57;;;;;;;;;;;;;;;-145.06;100.00;60892.56;4721382;29;19955;-92
2023/08/04 01:29:43;;;;;;;;;;;;;;;-145.06;100.00;60892.56;4720494;29;19915;-94
2023/08/04 01:32:31;;;;;;;;;;;;;;;-145.06;100.00;60892.56;4720599;29;19987;-92
2023/08/04 01:35:18;;;;;;;;;;;;;;;-145.06;100.00;60892.56;4701322;29;19924;-92
2023/08/04 01:37:58;;;;;;;;;;;;;;;-145.06;100.00;60892.56;4718026;29;20018;-92
2023/08/04 01:40:42;;;;;;;;;;;;;;;-145.06;100.00;60892.56;4720500;29;19916;-94
2023/08/04 01:43:21;;;;;;;;;;;;;;;-145.06;100.00;60892.56;4720115;29;20362;-93
2023/08/04 01:46:01;;;;;;;;;;;;;;;-145.06;100.00;60892.56;4720891;29;20549;-93
2023/08/04 01:48:48;;;;;;;;;;;;;;;-145.06;100.00;60892.56;4720780;29;19916;-93
2023/08/04 01:51:43;;;;;;;;;;;;;;;-145.06;100.00;60892.56;4719510;29;19923;-92
2023/08/04 01:54:27;;;;;;;;;;;;;;;-145.06;100.00;60892.56;4719441;29;19919;-91
2023/08/04 01:57:06;;;;;;;;;;;;;;;-145.06;100.00;60892.56;4732240;29;20374;-92
2023/08/04 01:59:48;;;;;;;;;;;;;;;-145.06;100.00;60892.56;4739528;29;19915;-94
2023/08/04 02:02:34;;;;;;;;;;;;;;;-145.06;100.00;60892.56;4705093;29;19928;-94
2023/08/04 02:05:22;;;;;;;;;;;;;;;-145.06;100.00;60892.56;4719939;29;19915;-93
2023/08/04 02:08:04;;;;;;;;;;;;;;;-145.06;100.00;60892.56;4720047;29;19916;-92
2023/08/04 02:10:55;;;;;;;;;;;;;;;-145.06;100.00;60892.56;4720423;29;19920;-93
2023/08/04 02:13:34;;;;;;;;;;;;;;;-145.06;100.00;60892.56;4720557;29;20335;-91
2023/08/04 02:16:15;;;;;;;;;;;;;;;-145.06;100.00;60892.56;4720049;29;19923;-93
2023/08/04 02:19:09;;;;;;;;;;;;;;;-145.06;100.00;60892.56;4719988;29;19915;-92
2023/08/04 02:21:57;;;;;;;;;;;;;;;-145.06;100.00;60892.56;4720215;29;19915;-93
2023/08/04 02:24:47;;;;;;;;;;;;;;;-145.06;100.00;60892.56;4726892;29;20365;-92
2023/08/04 02:27:25;;;;;;;;;;;;;;;-145.06;100.00;60892.56;4706719;29;19916;-92
2023/08/04 02:30:18;;;;;;;;;;;;;;;-145.06;100.00;60892.56;4724559;29;20347;-92
2023/08/04 02:33:08;;;;;;;;;;;;;;;-145.06;100.00;60892.56;4724307;29;20142;-92
2023/08/04 02:35:57;;;;;;;;;;;;;;;-145.06;100.00;60892.56;4735563;29;19923;-93
2023/08/04 02:38:36;;;;;;;;;;;;;;;-145.06;100.00;60892.56;4739110;29;19919;-93
2023/08/04 02:41:21;;;;;;;;;;;;;;;-145.06;100.00;60892.56;4728855;29;19920;-93
2023/08/04 02:44:12;;;;;;;;;;;;;;;-145.06;100.00;60892.56;4728184;29;19915;-94
2023/08/04 02:46:53;;;;;;;;;;;;;;;-145.06;100.00;60892.56;4724467;29;19915;-93
2023/08/04 02:49:35;;;;;;;;;;;;;;;-145.06;100.00;60892.56;4724119;29;19919;-92
2023/08/04 02:52:16;;;;;;;;;;;;;;;-145.06;100.00;60892.56;4723679;29;19915;-93
2023/08/04 02:54:58;;;;;;;;;;;;;;;-145.06;100.00;60892.56;4723505;29;19919;-91
2023/08/04 02:57:40;;;;;;;;;;;;;;;-145.06;100.00;60892.56;4741982;29;19923;-92
2023/08/04 03:00:21;;;;;;;;;;;;;;;-145.06;100.00;60892.56;4733834;29;19915;-92
2023/08/04 03:03:03;;;;;;;;;;;;;;;-145.06;100.00;60892.56;4724059;29;19920;-92
2023/08/04 03:05:42;;;;;;;;;;;;;;;-145.06;100.00;60892.56;4743765;29;19915;-93
2023/08/04 03:08:21;;;;;;;;;;;;;;;-145.06;100.00;60892.56;4722692;29;20354;-93
2023/08/04 03:11:03;;;;;;;;;;;;;;;-145.06;100.00;60892.56;4717586;29;19915;-93
2023/08/04 03:13:43;;;;;;;;;;;;;;;-145.06;100.00;60892.56;4699815;29;20355;-92
2023/08/04 03:16:24;;;;;;;;;;;;;;;-145.06;100.00;60892.56;4723149;29;19920;-93
2023/08/04 03:19:03;;;;;;;;;;;;;;;-145.06;100.00;60892.56;4740510;29;19915;-92
2023/08/04 03:21:44;;;;;;;;;;;;;;;-145.06;100.00;60892.56;4712515;29;20566;-92
2023/08/04 03:24:23;;;;;;;;;;;;;;;187.52;100.00;60892.56;4704648;29;19916;-92
2023/08/04 03:27:02;;;;;;;;;;;;;;;-145.06;100.00;60892.56;4707850;29;19916;-92
2023/08/04 03:29:41;;;;;;;;;;;;;;;-145.06;100.00;60892.56;4722236;29;19919;-93
2023/08/04 03:32:20;;;;;;;;;;;;;;;-145.06;100.00;60892.56;4723076;29;19916;-92
2023/08/04 03:35:01;;;;;;;;;;;;;;;-145.06;100.00;60892.56;4723017;29;20010;-93
2023/08/04 03:37:41;;;;;;;;;;;;;;;-145.06;100.00;60892.56;4740653;29;20365;-93
2023/08/04 03:40:20;;;;;;;;;;;;;;;-145.06;100.00;60892.56;4733694;29;19915;-92
2023/08/04 03:42:59;;;;;;;;;;;;;;;-145.06;100.00;60892.56;4708070;29;19915;-91
2023/08/04 03:45:38;;;;;;;;;;;;;;;-145.06;100.00;60892.56;4722446;29;19962;-92
2023/08/04 03:48:28;;;;;;;;;;;;;;;-145.06;100.00;60892.56;4704448;29;19920;-91
2023/08/04 03:51:13;;;;;;;;;;;;;;;-145.06;100.00;60892.56;4706933;29;20006;-93
2023/08/04 03:53:52;;;;;;;;;;;;;;;-145.06;100.00;60892.56;4746401;29;19916;-93
2023/08/04 03:56:39;;;;;;;;;;;;;;;-145.06;100.00;60892.56;4721826;29;20351;-93
2023/08/04 03:59:18;;;;;;;;;;;;;;;-145.06;100.00;60892.56;4721882;29;19919;-93
2023/08/04 04:01:59;;;;;;;;;;;;;;;-145.06;100.00;60892.56;4717452;29;19919;-92
2023/08/04 04:04:39;;;;;;;;;;;;;;;-145.06;100.00;60892.56;4703736;29;19955;-92
2023/08/04 04:07:18;;;;;;;;;;;;;;;-145.06;100.00;60892.56;4703834;29;19919;-93
2023/08/04 04:09:57;;;;;;;;;;;;;;;-145.06;100.00;60892.56;4702350;29;19916;-91
2023/08/04 04:12:36;;;;;;;;;;;;;;;-145.06;100.00;60892.56;4713126;29;19920;-92
2023/08/04 04:15:20;;;;;;;;;;;;;;;-145.06;100.00;60892.56;4721136;29;20322;-92
2023/08/04 04:17:59;;;;;;;;;;;;;;;-145.06;100.00;60892.56;4703051;29;19915;-93
2023/08/04 04:20:41;;;;;;;;;;;;;;;-145.06;100.00;60892.56;4720339;29;19962;-92
2023/08/04 04:23:22;;;;;;;;;;;;;;;-145.06;100.00;60892.56;4721828;29;20009;-92
2023/08/04 04:26:03;;;;;;;;;;;;;;;-145.06;100.00;60892.56;4726607;29;20246;-93
2023/08/04 04:28:45;;;;;;;;;;;;;;;-145.06;100.00;60892.56;4725294;29;20002;-92
2023/08/04 04:31:30;;;;;;;;;;;;;;;-145.06;100.00;60892.56;4704048;29;19924;-94
2023/08/04 04:34:09;;;;;;;;;;;;;;;-145.06;100.00;60892.56;4702090;29;19955;-92
2023/08/04 04:36:48;;;;;;;;;;;;;;;-145.06;100.00;60892.56;4716303;29;20279;-91
2023/08/04 04:39:27;;;;;;;;;;;;;;;-145.06;100.00;60892.56;4719111;29;19916;-90
2023/08/04 04:42:06;;;;;;;;;;;;;;;-145.06;100.00;60892.56;4714954;29;20263;-91
2023/08/04 04:44:45;;;;;;;;;;;;;;;-145.06;100.00;60892.56;4717442;29;19919;-92
2023/08/04 04:47:24;;;;;;;;;;;;;;;-145.06;100.00;60892.56;4730085;29;19915;-93
2023/08/04 04:50:05;;;;;;;;;;;;;;;-145.06;100.00;60892.56;4732781;29;19962;-93
2023/08/04 04:52:47;;;;;;;;;;;;;;;-145.06;100.00;60892.56;4720715;29;19916;-92
2023/08/04 04:55:28;;;;;;;;;;;;;;;-145.06;100.00;60892.56;4720432;29;19923;-92
2023/08/04 04:58:08;;;;;;;;;;;;;;;-145.06;100.00;60892.56;4703042;29;19923;-92
2023/08/04 05:00:47;;;;;;;;;;;;;;;-145.06;100.00;60892.56;4716127;29;19916;-92
2023/08/04 05:03:26;;;;;;;;;;;;;;;-145.06;100.00;60892.56;4703386;29;19959;-92
2023/08/04 05:06:05;;;;;;;;;;;;;;;-145.06;100.00;60892.56;4713225;29;19924;-92
2023/08/04 05:09:01;;;;;;;;;;;;;;;-145.06;100.00;60892.56;4727952;29;19915;-93
2023/08/04 05:11:42;;;;;;;;;;;;;;;-145.06;100.00;60892.56;4712293;29;19919;-92
2023/08/04 05:14:23;;;;;;;;;;;;;;;-145.06;100.00;60892.56;4720572;29;19919;-94
2023/08/04 05:17:03;;;;;;;;;;;;;;;-145.06;100.00;60892.56;4720881;29;19916;-93
2023/08/04 05:19:52;;;;;;;;;;;;;;;-145.06;100.00;60892.56;4720287;29;19915;-93
2023/08/04 05:22:31;;;;;;;;;;;;;;;-145.06;100.00;60892.56;4725456;29;20251;-91
2023/08/04 05:25:10;;;;;;;;;;;;;;;-145.06;100.00;60892.56;4727490;29;19915;-93
2023/08/04 05:27:50;;;;;;;;;;;;;;;-145.06;100.00;60892.56;4719923;29;19959;-92
2023/08/04 05:30:29;;;;;;;;;;;;;;;-145.06;100.00;60892.56;4708566;29;19916;-93
2023/08/04 05:33:08;;;;;;;;;;;;;;;-145.06;100.00;60892.56;4729199;29;19923;-92
2023/08/04 05:35:49;;;;;;;;;;;;;;;-145.06;100.00;60892.56;4719022;29;19920;-92
2023/08/04 05:38:36;;;;;;;;;;;;;;;-145.06;100.00;60892.56;4747229;29;19954;-92
2023/08/04 06:03:35;;;;;;;;;;;;;;;-145.06;100.00;60892.56;4710768;29;19956;-92
2023/08/04 06:06:27;;;;;;;;;;;;;;;-145.06;100.00;60892.56;4699145;29;19916;-93
2023/08/04 06:09:06;;;;;;;;;;;;;;;-145.06;100.00;60892.56;4707369;29;19916;-92
2023/08/04 06:11:53;;;;;;;;;;;;;;;-145.06;100.00;60892.56;4708992;29;19994;-92
2023/08/04 06:14:32;;;;;;;;;;;;;;;-145.06;100.00;60892.56;4698225;29;19928;-92
2023/08/04 06:17:11;;;;;;;;;;;;;;;-145.06;100.00;60892.56;4700875;29;19951;-93
2023/08/04 06:19:50;;;;;;;;;;;;;;;-145.06;100.00;60892.56;4705831;29;19951;-92
2023/08/04 06:22:29;;;;;;;;;;;;;;;-145.06;100.00;60892.56;4695779;29;19968;-92
2023/08/04 06:25:08;;;;;;;;;;;;;;;-145.06;100.00;60892.56;4701002;29;19924;-92
2023/08/04 06:27:55;;;;;;;;;;;;;;;-145.06;100.00;60892.56;4693639;29;19920;-92
2023/08/04 06:30:34;;;;;;;;;;;;;;;-145.06;100.00;60892.56;4704323;29;19970;-91
2023/08/04 06:33:13;;;;;;;;;;;;;;;-145.06;100.00;60892.56;4697426;29;19963;-92
2023/08/04 06:35:52;;;;;;;;;;;;;;;-145.06;100.00;60892.56;4702423;29;19920;-93
2023/08/04 06:38:31;;;;;;;;;;;;;;;-145.06;100.00;60892.56;4705377;29;20005;-91
2023/08/04 06:41:10;;;;;;;;;;;;;;;-145.06;100.00;60892.56;4688907;29;19924;-93
2023/08/04 06:43:49;;;;;;;;;;;;;;;-145.06;100.00;60892.56;4703039;29;19920;-92
2023/08/04 06:46:28;;;;;;;;;;;;;;;-145.06;100.00;60892.56;4706332;29;20015;-92
2023/08/04 06:49:10;;;;;;;;;;;;;;;-145.06;100.00;60892.56;4698940;29;19951;-92
2023/08/04 06:51:49;;;;;;;;;;;;;;;-145.06;100.00;60892.56;4690870;29;19927;-90
2023/08/04 06:54:29;;;;;;;;;;;;;;;-145.06;100.00;60892.56;4701188;29;19972;-91
2023/08/04 06:57:08;;;;;;;;;;;;;;;-145.06;100.00;60892.56;4704826;29;19916;-91
2023/08/04 06:59:47;;;;;;;;;;;;;;;-145.06;100.00;60892.56;4705516;29;19916;-93
2023/08/04 07:02:26;;;;;;;;;;;;;;;-145.06;100.00;60892.56;4713821;29;19920;-92
2023/08/04 07:05:05;;;;;;;;;;;;;;;-145.06;100.00;60892.56;4705082;29;19920;-93
2023/08/04 07:07:46;;;;;;;;;;;;;;;-145.06;100.00;60892.56;4695771;29;19916;-91
2023/08/04 07:10:25;;;;;;;;;;;;;;;-145.06;100.00;60892.56;4713318;29;19920;-92
2023/08/04 07:13:04;;;;;;;;;;;;;;;-145.06;100.00;60892.56;4713595;29;19916;-90
2023/08/04 07:16:01;;;;;;;;;;;;;;;-145.06;100.00;60892.56;4708216;29;20020;-91
2023/08/04 07:18:40;;;;;;;;;;;;;;;-145.06;100.00;60892.56;4716359;29;19999;-91
2023/08/04 07:21:19;;;;;;;;;;;;;;;-145.06;100.00;60892.56;4716776;29;19916;-92
2023/08/04 07:23:58;;;;;;;;;;;;;;;-145.06;100.00;60892.56;4693182;29;19921;-93
2023/08/04 07:26:37;;;;;;;;;;;;;;;-145.06;100.00;60892.56;4717518;29;19916;-92
2023/08/04 07:29:16;;;;;;;;;;;;;;;-145.06;100.00;60892.56;4717446;29;19915;-93
2023/08/04 07:31:55;;;;;;;;;;;;;;;-145.06;100.00;60892.56;4717291;29;20026;-93
2023/08/04 07:34:34;;;;;;;;;;;;;;;-145.06;100.00;60892.56;4716638;29;19919;-93
2023/08/04 07:37:13;;;;;;;;;;;;;;;-145.06;100.00;60892.56;4717326;29;19915;-91
2023/08/04 07:39:52;;;;;;;;;;;;;;;-145.06;100.00;60892.56;4718934;29;20271;-92
2023/08/04 07:42:34;;;;;;;;;;;;;;;-145.06;100.00;60892.56;4717347;29;19916;-92
2023/08/04 07:45:13;;;;;;;;;;;;;;;-145.06;100.00;60892.56;4702445;29;19916;-93
2023/08/04 07:47:52;;;;;;;;;;;;;;;-145.06;100.00;60892.56;4679379;29;20280;-92
2023/08/04 07:50:31;;;;;;;;;;;;;;;-145.06;100.00;60892.56;4685339;29;19916;-92
2023/08/04 07:53:10;;;;;;;;;;;;;;;-145.06;100.00;60892.56;4685129;29;20299;-93
2023/08/04 07:55:56;;;;;;;;;;;;;;;-145.06;100.00;60892.56;4685889;29;19924;-91
2023/08/04 07:58:35;;;;;;;;;;;;;;;-145.06;100.00;60892.56;4694313;29;19916;-91
2023/08/04 08:01:14;;;;;;;;;;;;;;;-145.06;100.00;60892.56;4717051;29;19916;-92
2023/08/04 08:03:53;;;;;;;;;;;;;;;-145.06;100.00;60892.56;4710624;29;19920;-92
2023/08/04 08:06:32;;;;;;;;;;;;;;;-145.06;100.00;60892.56;4716471;29;19916;-92
2023/08/04 08:09:12;;;;;;;;;;;;;;;-145.06;100.00;60892.56;4716514;29;20445;-92
2023/08/04 08:11:50;;;;;;;;;;;;;;;-145.06;100.00;60892.56;4716855;29;19959;-91
2023/08/04 08:14:30;;;;;;;;;;;;;;;-145.06;100.00;60892.56;4715337;29;19920;-93
2023/08/04 08:17:09;;;;;;;;;;;;;;;-145.06;100.00;60892.56;4698577;29;19920;-91
2023/08/04 08:19:47;;;;;;;;;;;;;;;-145.06;100.00;60892.56;4700895;29;19916;-92
2023/08/04 08:22:26;;;;;;;;;;;;;;;-145.06;100.00;60892.56;4716344;29;20479;-93
2023/08/04 08:25:06;;;;;;;;;;;;;;;-145.06;100.00;60892.56;4711347;29;20373;-92
2023/08/04 08:27:44;;;;;;;;;;;;;;;-145.06;100.00;60892.56;4698237;29;19916;-92
2023/08/04 08:30:23;;;;;;;;;;;;;;;-145.06;100.00;60892.56;4714328;29;19916;-92
2023/08/04 08:33:02;;;;;;;;;;;;;;;-145.06;100.00;60892.56;4716048;29;19915;-92
2023/08/04 08:35:41;;;;;;;;;;;;;;;-145.06;100.00;60892.56;4705913;29;19919;-93
2023/08/04 08:38:20;;;;;;;;;;;;;;;-145.06;100.00;60892.56;4720980;29;19920;-93
2023/08/04 08:40:59;;;;;;;;;;;;;;;-145.06;100.00;60892.56;4717246;29;19951;-92
2023/08/04 08:43:39;;;;;;;;;;;;;;;-145.06;100.00;60892.56;4716502;29;20023;-93
2023/08/04 08:46:21;;;;;;;;;;;;;;;-145.06;100.00;60892.56;4705155;29;19920;-92
2023/08/04 08:49:01;;;;;;;;;;;;;;;-145.06;100.00;60892.56;4698630;29;19916;-91
2023/08/04 08:51:42;;;;;;;;;;;;;;;-145.06;100.00;60892.56;4698150;29;19916;-93
2023/08/04 08:54:21;;;;;;;;;;;;;;;-145.06;100.00;60892.56;4698360;29;19920;-92
2023/08/04 08:57:00;;;;;;;;;;;;;;;-145.06;100.00;60892.56;4697866;29;19995;-94
2023/08/04 08:59:39;;;;;;;;;;;;;;;-145.06;100.00;60892.56;4698075;29;19916;-93
2023/08/04 09:02:18;;;;;;;;;;;;;;;-145.06;100.00;60892.56;4706044;29;19921;-93
2023/08/04 09:04:59;;;;;;;;;;;;;;;-145.06;100.00;60892.56;4697054;29;19916;-93
2023/08/04 09:07:38;;;;;;;;;;;;;;;-145.06;100.00;60892.56;4696260;29;19916;-94
2023/08/04 09:10:19;;;;;;;;;;;;;;;-145.06;100.00;60892.56;4712171;29;20364;-93
2023/08/04 09:12:58;;;;;;;;;;;;;;;18.61;100.00;60892.56;4701839;29;19916;-93
2023/08/04 09:15:48;;;;;;;;;;;;;;;-145.06;100.00;60892.56;4706470;29;19920;-93
2023/08/04 09:18:28;;;;;;;;;;;;;;;-145.06;100.00;60892.56;4683716;29;19917;-92
2023/08/04 09:21:07;;;;;;;;;;;;;;;-145.06;100.00;60892.56;4701769;29;19916;-93
2023/08/04 09:23:51;;;;;;;;;;;;;;;-145.06;100.00;60892.56;4707204;29;19916;-93
2023/08/04 09:26:40;;;;;;;;;;;;;;;-145.06;100.00;60892.56;4715003;29;19915;-92
2023/08/04 09:29:19;;;;;;;;;;;;;;;-145.06;100.00;60892.56;4716493;29;19920;-94
2023/08/04 09:31:58;;;;;;;;;;;;;;;-145.06;100.00;60892.56;4697030;29;20015;-92
2023/08/04 09:34:37;;;;;;;;;;;;;;;-145.06;100.00;60892.56;4696980;29;19920;-92
2023/08/04 09:37:16;;;;;;;;;;;;;;;-145.06;100.00;60892.56;4699596;29;20283;-93
2023/08/04 09:39:55;;;;;;;;;;;;;;;-145.06;100.00;60892.56;4714622;29;20355;-92
2023/08/04 09:42:38;;;;;;;;;;;;;;;-145.06;100.00;60892.56;4715863;29;20359;-93
2023/08/04 09:45:18;;;;;;;;;;;;;;;-145.06;100.00;60892.56;4709827;29;19920;-93
2023/08/04 09:47:57;;;;;;;;;;;;;;;-145.06;100.00;60892.56;4696951;29;19916;-93
2023/08/04 09:50:36;;;;;;;;;;;;;;;-145.06;100.00;60892.56;4697096;29;19943;-92
2023/08/04 09:53:15;;;;;;;;;;;;;;;-145.06;100.00;60892.56;4697372;29;19955;-92
2023/08/04 09:55:54;;;;;;;;;;;;;;;-145.06;100.00;60892.56;4697286;29;19919;-92
2023/08/04 09:58:34;;;;;;;;;;;;;;;-145.06;100.00;60892.56;4713718;29;19916;-92
2023/08/04 10:01:13;;;;;;;;;;;;;;;-145.06;100.00;60892.56;4697215;29;20268;-92
2023/08/04 10:03:54;;;;;;;;;;;;;;;-145.06;100.00;60892.56;4702063;29;20213;-94
2023/08/04 10:06:33;;;;;;;;;;;;;;;-145.06;100.00;60892.56;4709895;29;19951;-93
2023/08/04 10:09:12;;;;;;;;;;;;;;;-145.06;100.00;60892.56;4714375;29;19916;-92
2023/08/04 10:11:52;;;;;;;;;;;;;;;-145.06;100.00;60892.56;4714396;29;19916;-93
2023/08/04 10:14:34;;;;;;;;;;;;;;;-145.06;100.00;60892.56;4714869;29;20006;-93
2023/08/04 10:17:13;;;;;;;;;;;;;;;-145.06;100.00;60892.56;4714405;29;19920;-91
2023/08/04 10:20:03;;;;;;;;;;;;;;;-145.06;100.00;60892.56;4714060;29;19915;-92
2023/08/04 10:23:03;;;;;;;;;;;;;;;-145.06;100.00;60892.56;4715748;29;19915;-90
2023/08/04 10:25:55;;;;;;;;;;;;;;;-145.06;100.00;60892.56;4716394;29;20374;-92
2023/08/04 10:28:54;;;;;;;;;;;;;;;-145.06;100.00;60892.56;4715502;29;19947;-91
2023/08/04 10:31:51;;;;;;;;;;;;;;;-145.06;100.00;60892.56;4715376;29;20268;-91
2023/08/04 10:34:31;;;;;;;;;;;;;;;-145.06;100.00;60892.56;4716070;29;19920;-91
2023/08/04 10:37:17;;;;;;;;;;;;;;;-145.06;100.00;60892.56;4715335;29;19916;-90
2023/08/04 10:39:56;;;;;;;;;;;;;;;-145.06;100.00;60892.56;4714968;29;19916;-92
2023/08/04 10:42:55;;;;;;;;;;;;;;;-145.06;100.00;60892.56;4711504;29;20359;-93
2023/08/04 10:45:52;;;;;;;;;;;;;;;-145.06;100.00;60892.56;4716229;29;19916;-91
2023/08/04 10:48:34;;;;;;;;;;;;;;;-145.06;100.00;60892.56;4716634;29;19916;-91
2023/08/04 10:51:13;;;;;;;;;;;;;;;-145.06;100.00;60892.56;4718721;29;20359;-92
2023/08/04 10:53:53;;;;;;;;;;;;;;;-145.06;100.00;60892.56;4718669;29;20197;-92
2023/08/04 10:56:38;;;;;;;;;;;;;;;-145.06;100.00;60892.56;4703945;29;19920;-92
2023/08/04 10:59:17;;;;;;;;;;;;;;;-145.06;100.00;60892.56;4700710;29;19959;-92
2023/08/04 11:01:57;;;;;;;;;;;;;;;-145.06;100.00;60892.56;4699803;29;19920;-92
2023/08/04 11:04:36;;;;;;;;;;;;;;;-145.06;100.00;60892.56;4707445;29;19916;-93
2023/08/04 11:07:22;;;;;;;;;;;;;;;-145.06;100.00;60892.56;4700087;29;19920;-93
2023/08/04 11:10:05;;;;;;;;;;;;;;;-145.06;100.00;60892.56;4711280;29;19916;-93
2023/08/04 11:12:43;;;;;;;;;;;;;;;-145.06;100.00;60892.56;4703897;29;19916;-94
2023/08/04 11:15:25;;;;;;;;;;;;;;;-145.06;100.00;60892.56;4717858;29;19920;-92
2023/08/04 11:18:08;;;;;;;;;;;;;;;-145.06;100.00;60892.56;4718579;29;20260;-93
2023/08/04 11:20:47;;;;;;;;;;;;;;;-145.06;100.00;60892.56;4719948;29;19915;-93
2023/08/04 11:23:27;;;;;;;;;;;;;;;-145.06;100.00;60892.56;4718122;29;19916;-91
2023/08/04 11:26:07;;;;;;;;;;;;;;;-145.06;100.00;60892.56;4714665;29;20280;-90
2023/08/04 11:28:46;;;;;;;;;;;;;;;-145.06;100.00;60892.56;4699642;29;19916;-92
2023/08/04 11:31:26;;;;;;;;;;;;;;;-145.06;100.00;60892.56;4700770;29;19916;-93
2023/08/04 11:34:13;;;;;;;;;;;;;;;-145.06;100.00;60892.56;4707700;29;19943;-93
2023/08/04 11:36:52;;;;;;;;;;;;;;;20.76;100.00;60892.56;4701349;29;20269;-92
2023/08/04 11:39:31;;;;;;;;;;;;;;;20.79;100.00;81616.88;4704535;29;19916;-92
2023/08/04 11:42:11;;;;;;;;;;;;;;;20.83;100.00;60892.56;4718695;29;19916;-92
2023/08/04 11:44:50;;;;;;;;;;;;;;;20.87;100.00;60892.56;4718059;29;19916;-94
2023/08/04 11:47:29;;;;;;;;;;;;;;;20.90;100.00;60892.56;4717360;29;20007;-94
2023/08/04 11:50:08;;;;;;;;;;;;;;;20.92;100.00;60892.56;4715574;29;19916;-93
2023/08/04 11:52:47;;;;;;;;;;;;;;;20.95;100.00;60892.56;4700616;29;19916;-93
2023/08/04 11:55:29;;;;;;;;;;;;;;;20.98;100.00;81616.88;4700777;29;19984;-91
2023/08/04 11:58:08;;;;;;;;;;;;;;;21.02;100.00;60892.56;4700987;29;19916;-90
2023/08/04 12:00:50;;;;;;;;;;;;;;;21.06;100.00;60892.56;4701085;29;19916;-91
2023/08/04 12:03:49;;;;;;;;;;;;;;;-145.06;100.00;60892.56;4701486;29;20006;-91
2023/08/04 12:06:29;;;;;;;;;;;;;;;-145.06;100.00;60892.56;4700514;29;19916;-91
2023/08/04 12:09:11;;;;;;;;;;;;;;;-145.06;100.00;60892.56;4710605;29;19916;-93
2023/08/04 12:11:49;;;;;;;;;;;;;;;-145.06;100.00;60892.56;4716919;29;19920;-92
2023/08/04 12:14:29;;;;;;;;;;;;;;;-145.06;100.00;60892.56;4719335;29;19920;-92
2023/08/04 12:17:07;;;;;;;;;;;;;;;-145.06;100.00;60892.56;4706860;29;19951;-92
2023/08/04 12:19:54;;;;;;;;;;;;;;;-145.06;100.00;60892.56;4675894;29;19916;-91
2023/08/04 12:22:34;;;;;;;;;;;;;;;-145.06;100.00;60892.56;4683248;29;19917;-95
2023/08/04 12:25:13;;;;;;;;;;;;;;;-145.06;100.00;60892.56;4683243;29;19999;-92
2023/08/04 12:27:52;;;;;;;;;;;;;;;-145.06;100.00;60892.56;4682259;29;19952;-93
2023/08/04 12:30:31;;;;;;;;;;;;;;;-145.06;100.00;60892.56;4698021;29;19963;-93
2023/08/04 12:33:10;;;;;;;;;;;;;;;-145.06;100.00;60892.56;4697426;29;19916;-92
2023/08/04 12:35:49;;;;;;;;;;;;;;;-145.06;100.00;60892.56;4704911;29;20019;-93
2023/08/04 12:38:28;;;;;;;;;;;;;;;62.66;100.00;60892.56;4709508;29;19916;-92
2023/08/04 12:41:09;;;;;;;;;;;;;;;-145.06;100.00;60892.56;4689663;29;19919;-93
2023/08/04 12:43:48;;;;;;;;;;;;;;;-145.06;100.00;60892.56;4716972;29;19916;-92
2023/08/04 12:46:27;;;;;;;;;;;;;;;-145.06;100.00;60892.56;4711708;29;19955;-93
2023/08/04 12:49:06;;;;;;;;;;;;;;;-145.06;100.00;60892.56;4712629;29;19920;-92
2023/08/04 12:51:45;;;;;;;;;;;;;;;-145.06;100.00;60892.56;4706689;29;20379;-93
2023/08/04 12:54:24;;;;;;;;;;;;;;;-145.06;100.00;60892.56;4715568;29;20408;-92
2023/08/04 12:57:03;;;;;;;;;;;;;;;-145.06;100.00;60892.56;4711369;29;20530;-93
2023/08/04 12:59:42;;;;;;;;;;;;;;;-145.06;100.00;60892.56;4716047;29;19916;-93
2023/08/04 13:02:21;;;;;;;;;;;;;;;-145.06;100.00;60892.56;4715209;29;19920;-92
2023/08/04 13:05:03;;;;;;;;;;;;;;;-145.06;100.00;60892.56;4705708;29;19916;-93
2023/08/04 13:07:42;;;;;;;;;;;;;;;-145.06;100.00;60892.56;4696619;29;19951;-91
2023/08/04 13:10:23;;;;;;;;;;;;;;;-145.06;100.00;60892.56;4711621;29;19915;-91
2023/08/04 13:13:02;;;;;;;;;;;;;;;-145.06;100.00;60892.56;4702049;29;19916;-92
2023/08/04 13:15:45;;;;;;;;;;;;;;;-145.06;100.00;60892.56;4715567;29;20384;-92
2023/08/04 13:18:24;;;;;;;;;;;;;;;-145.06;100.00;60892.56;4714675;29;19916;-93
2023/08/04 13:21:03;;;;;;;;;;;;;;;-145.06;100.00;60892.56;4701813;29;20523;-93
2023/08/04 13:23:42;;;;;;;;;;;;;;;-145.06;100.00;60892.56;4721774;29;19915;-93
2023/08/04 13:26:21;;;;;;;;;;;;;;;-145.06;100.00;60892.56;4714417;29;20280;-92
2023/08/04 13:29:00;;;;;;;;;;;;;;;-145.06;100.00;60892.56;4714787;29;19920;-94
2023/08/04 13:31:39;;;;;;;;;;;;;;;-145.06;100.00;60892.56;4715926;29;20363;-92
2023/08/04 13:34:18;;;;;;;;;;;;;;;-145.06;100.00;60892.56;4707919;29;19916;-92
2023/08/04 13:36:57;;;;;;;;;;;;;;;-145.06;100.00;60892.56;4698471;29;19920;-93
2023/08/04 13:39:43;;;;;;;;;;;;;;;-145.06;100.00;60892.56;4698474;29;19956;-92
2023/08/04 13:42:25;;;;;;;;;;;;;;;-145.06;100.00;60892.56;4698813;29;19920;-91
2023/08/04 13:45:04;;;;;;;;;;;;;;;-145.06;100.00;60892.56;4718913;29;20259;-92
2023/08/04 13:47:45;;;;;;;;;;;;;;;-145.06;100.00;60892.56;4715683;29;19955;-93
2023/08/04 13:50:26;;;;;;;;;;;;;;;-145.06;100.00;60892.56;4705852;29;19921;-91
2023/08/04 13:53:05;;;;;;;;;;;;;;;-145.06;100.00;60892.56;4698524;29;19920;-92
2023/08/04 13:55:44;;;;;;;;;;;;;;;-145.06;100.00;60892.56;4711033;29;19923;-91